sensor_id;sensor_type;location;lat;lon;timestamp;temperature;humidity
6581;DHT22;3324;50.796;7.228;2023-04-12T00:01:45;10.10;99.90
6581;DHT22;3324;50.796;7.228;2023-04-12T00:04:11;10.30;99.90
6581;DHT22;3324;50.796;7.228;2023-04-12T00:06:41;10.30;99.90
6581;DHT22;3324;50.796;7.228;2023-04-12T00:09:07;10.50;99.90
6581;DHT22;3324;50.796;7.228;2023-04-12T00:11:33;10.60;99.90
6581;DHT22;3324;50.796;7.228;2023-04-12T00:13:59;10.50;99.90
6581;DHT22;3324;50.796;7.228;2023-04-12T00:16:25;10.50;99.90
6581;DHT22;3324;50.796;7.228;2023-04-12T00:18:50;10.60;99.90
6581;DHT22;3324;50.796;7.228;2023-04-12T00:21:16;10.70;99.90
6581;DHT22;3324;50.796;7.228;2023-04-12T00:23:44;10.60;99.90
6581;DHT22;3324;50.796;7.228;2023-04-12T00:26:11;10.70;99.90
6581;DHT22;3324;50.796;7.228;2023-04-12T00:28:36;10.70;99.90
6581;DHT22;3324;50.796;7.228;2023-04-12T00:31:02;10.70;99.90
6581;DHT22;3324;50.796;7.228;2023-04-12T00:33:28;10.70;99.90
6581;DHT22;3324;50.796;7.228;2023-04-12T00:35:53;10.60;99.90
6581;DHT22;3324;50.796;7.228;2023-04-12T00:38:19;10.70;99.90
6581;DHT22;3324;50.796;7.228;2023-04-12T00:40:44;10.60;99.90
6581;DHT22;3324;50.796;7.228;2023-04-12T00:43:10;10.70;99.90
6581;DHT22;3324;50.796;7.228;2023-04-12T00:45:44;10.60;99.90
6581;DHT22;3324;50.796;7.228;2023-04-12T00:48:10;10.50;99.90
6581;DHT22;3324;50.796;7.228;2023-04-12T00:50:37;10.50;99.90
6581;DHT22;3324;50.796;7.228;2023-04-12T00:53:03;10.50;99.90
6581;DHT22;3324;50.796;7.228;2023-04-12T00:55:28;10.50;99.90
6581;DHT22;3324;50.796;7.228;2023-04-12T00:57:55;10.50;99.90
6581;DHT22;3324;50.796;7.228;2023-04-12T01:00:20;10.40;99.90
6581;DHT22;3324;50.796;7.228;2023-04-12T01:02:46;10.30;99.90
6581;DHT22;3324;50.796;7.228;2023-04-12T01:05:19;10.30;99.90
6581;DHT22;3324;50.796;7.228;2023-04-12T01:08:04;10.20;99.90
6581;DHT22;3324;50.796;7.228;2023-04-12T01:13:35;10.30;99.90
6581;DHT22;3324;50.796;7.228;2023-04-12T01:18:41;10.20;99.90
6581;DHT22;3324;50.796;7.228;2023-04-12T01:21:13;10.30;99.90
6581;DHT22;3324;50.796;7.228;2023-04-12T01:23:58;10.30;99.90
6581;DHT22;3324;50.796;7.228;2023-04-12T01:26:29;10.20;99.90
6581;DHT22;3324;50.796;7.228;2023-04-12T01:28:58;10.10;99.90
6581;DHT22;3324;50.796;7.228;2023-04-12T01:31:27;10.20;99.90
6581;DHT22;3324;50.796;7.228;2023-04-12T01:33:53;10.20;99.90
6581;DHT22;3324;50.796;7.228;2023-04-12T01:36:22;10.20;99.90
6581;DHT22;3324;50.796;7.228;2023-04-12T01:38:51;10.30;99.90
6581;DHT22;3324;50.796;7.228;2023-04-12T01:41:17;10.30;99.90
6581;DHT22;3324;50.796;7.228;2023-04-12T01:43:43;10.20;99.90
6581;DHT22;3324;50.796;7.228;2023-04-12T01:46:15;10.00;99.90
6581;DHT22;3324;50.796;7.228;2023-04-12T01:48:48;10.00;99.90
6581;DHT22;3324;50.796;7.228;2023-04-12T01:51:26;9.90;99.90
6581;DHT22;3324;50.796;7.228;2023-04-12T01:54:12;9.90;99.90
6581;DHT22;3324;50.796;7.228;2023-04-12T01:56:43;9.90;99.90
6581;DHT22;3324;50.796;7.228;2023-04-12T01:59:13;9.90;99.90
6581;DHT22;3324;50.796;7.228;2023-04-12T02:01:40;9.90;99.90
6581;DHT22;3324;50.796;7.228;2023-04-12T02:04:08;9.70;99.90
6581;DHT22;3324;50.796;7.228;2023-04-12T02:06:35;9.70;99.90
6581;DHT22;3324;50.796;7.228;2023-04-12T02:09:03;9.80;99.90
6581;DHT22;3324;50.796;7.228;2023-04-12T02:11:30;9.70;99.90
6581;DHT22;3324;50.796;7.228;2023-04-12T02:13:55;9.70;99.90
6581;DHT22;3324;50.796;7.228;2023-04-12T02:16:21;9.70;99.90
6581;DHT22;3324;50.796;7.228;2023-04-12T02:18:50;9.60;99.90
6581;DHT22;3324;50.796;7.228;2023-04-12T02:21:16;9.50;99.90
6581;DHT22;3324;50.796;7.228;2023-04-12T02:23:42;9.50;99.90
6581;DHT22;3324;50.796;7.228;2023-04-12T02:26:09;9.40;99.90
6581;DHT22;3324;50.796;7.228;2023-04-12T02:28:36;9.40;99.90
6581;DHT22;3324;50.796;7.228;2023-04-12T02:31:03;9.30;99.90
6581;DHT22;3324;50.796;7.228;2023-04-12T02:33:30;9.40;99.90
6581;DHT22;3324;50.796;7.228;2023-04-12T02:35:55;9.40;99.90
6581;DHT22;3324;50.796;7.228;2023-04-12T02:38:27;9.40;99.90
6581;DHT22;3324;50.796;7.228;2023-04-12T02:40:53;9.40;99.90
6581;DHT22;3324;50.796;7.228;2023-04-12T02:43:19;9.40;99.90
6581;DHT22;3324;50.796;7.228;2023-04-12T02:45:46;9.40;99.90
6581;DHT22;3324;50.796;7.228;2023-04-12T02:48:11;9.40;99.90
6581;DHT22;3324;50.796;7.228;2023-04-12T02:50:37;9.40;99.90
6581;DHT22;3324;50.796;7.228;2023-04-12T02:53:03;9.40;99.90
6581;DHT22;3324;50.796;7.228;2023-04-12T02:55:28;9.40;99.90
6581;DHT22;3324;50.796;7.228;2023-04-12T02:57:55;9.40;99.90
6581;DHT22;3324;50.796;7.228;2023-04-12T03:00:22;9.40;99.90
6581;DHT22;3324;50.796;7.228;2023-04-12T03:02:47;9.30;99.90
6581;DHT22;3324;50.796;7.228;2023-04-12T03:05:17;9.30;99.90
6581;DHT22;3324;50.796;7.228;2023-04-12T03:07:43;9.30;99.90
6581;DHT22;3324;50.796;7.228;2023-04-12T03:10:09;9.30;99.90
6581;DHT22;3324;50.796;7.228;2023-04-12T03:12:36;9.30;99.90
6581;DHT22;3324;50.796;7.228;2023-04-12T03:15:02;9.20;99.90
6581;DHT22;3324;50.796;7.228;2023-04-12T03:17:28;9.20;99.90
6581;DHT22;3324;50.796;7.228;2023-04-12T03:19:54;9.20;99.90
6581;DHT22;3324;50.796;7.228;2023-04-12T03:22:20;9.10;99.90
6581;DHT22;3324;50.796;7.228;2023-04-12T03:24:47;9.10;99.90
6581;DHT22;3324;50.796;7.228;2023-04-12T03:27:14;9.20;99.90
6581;DHT22;3324;50.796;7.228;2023-04-12T03:29:39;9.20;99.90
6581;DHT22;3324;50.796;7.228;2023-04-12T03:32:05;9.10;99.90
6581;DHT22;3324;50.796;7.228;2023-04-12T03:34:30;9.10;99.90
6581;DHT22;3324;50.796;7.228;2023-04-12T03:37:00;9.10;99.90
6581;DHT22;3324;50.796;7.228;2023-04-12T03:39:26;9.10;99.90
6581;DHT22;3324;50.796;7.228;2023-04-12T03:41:52;9.10;99.90
6581;DHT22;3324;50.796;7.228;2023-04-12T03:44:18;9.00;99.90
6581;DHT22;3324;50.796;7.228;2023-04-12T03:46:43;9.00;99.90
6581;DHT22;3324;50.796;7.228;2023-04-12T03:49:10;9.10;99.90
6581;DHT22;3324;50.796;7.228;2023-04-12T03:51:35;9.10;99.90
6581;DHT22;3324;50.796;7.228;2023-04-12T03:54:10;9.10;99.90
6581;DHT22;3324;50.796;7.228;2023-04-12T03:56:37;9.00;99.90
6581;DHT22;3324;50.796;7.228;2023-04-12T03:59:06;9.10;99.90
6581;DHT22;3324;50.796;7.228;2023-04-12T04:01:35;9.00;99.90
6581;DHT22;3324;50.796;7.228;2023-04-12T04:04:01;9.00;99.90
6581;DHT22;3324;50.796;7.228;2023-04-12T04:06:27;9.00;99.90
6581;DHT22;3324;50.796;7.228;2023-04-12T04:08:55;9.00;99.90
6581;DHT22;3324;50.796;7.228;2023-04-12T04:11:21;9.10;99.90
6581;DHT22;3324;50.796;7.228;2023-04-12T04:13:48;9.00;99.90
6581;DHT22;3324;50.796;7.228;2023-04-12T04:16:13;9.00;99.90
6581;DHT22;3324;50.796;7.228;2023-04-12T04:18:39;9.00;99.90
6581;DHT22;3324;50.796;7.228;2023-04-12T04:21:05;9.00;99.90
6581;DHT22;3324;50.796;7.228;2023-04-12T04:23:32;9.00;99.90
6581;DHT22;3324;50.796;7.228;2023-04-12T04:26:07;9.00;99.90
6581;DHT22;3324;50.796;7.228;2023-04-12T04:28:37;9.00;99.90
6581;DHT22;3324;50.796;7.228;2023-04-12T04:31:04;9.10;99.90
6581;DHT22;3324;50.796;7.228;2023-04-12T04:33:33;9.00;99.90
6581;DHT22;3324;50.796;7.228;2023-04-12T04:36:00;9.00;99.90
6581;DHT22;3324;50.796;7.228;2023-04-12T04:38:26;9.00;99.90
6581;DHT22;3324;50.796;7.228;2023-04-12T04:40:52;9.00;99.90
6581;DHT22;3324;50.796;7.228;2023-04-12T04:43:18;9.00;99.90
6581;DHT22;3324;50.796;7.228;2023-04-12T04:45:45;9.10;99.90
6581;DHT22;3324;50.796;7.228;2023-04-12T04:48:13;9.00;99.90
6581;DHT22;3324;50.796;7.228;2023-04-12T04:50:40;9.00;99.90
6581;DHT22;3324;50.796;7.228;2023-04-12T04:53:06;9.00;99.90
6581;DHT22;3324;50.796;7.228;2023-04-12T04:55:32;9.00;99.90
6581;DHT22;3324;50.796;7.228;2023-04-12T04:57:57;9.10;99.90
6581;DHT22;3324;50.796;7.228;2023-04-12T05:00:23;9.10;99.90
6581;DHT22;3324;50.796;7.228;2023-04-12T05:02:50;9.20;99.90
6581;DHT22;3324;50.796;7.228;2023-04-12T05:05:16;9.10;99.90
6581;DHT22;3324;50.796;7.228;2023-04-12T05:07:42;9.10;99.90
6581;DHT22;3324;50.796;7.228;2023-04-12T05:10:09;9.10;99.90
6581;DHT22;3324;50.796;7.228;2023-04-12T05:12:38;9.10;99.90
6581;DHT22;3324;50.796;7.228;2023-04-12T05:15:04;9.20;99.90
6581;DHT22;3324;50.796;7.228;2023-04-12T05:17:30;9.10;99.90
6581;DHT22;3324;50.796;7.228;2023-04-12T05:19:56;9.10;99.90
6581;DHT22;3324;50.796;7.228;2023-04-12T05:22:22;9.10;99.90
6581;DHT22;3324;50.796;7.228;2023-04-12T05:24:48;9.10;99.90
6581;DHT22;3324;50.796;7.228;2023-04-12T05:27:14;9.10;99.90
6581;DHT22;3324;50.796;7.228;2023-04-12T05:29:43;9.00;99.90
6581;DHT22;3324;50.796;7.228;2023-04-12T05:32:09;9.10;99.90
6581;DHT22;3324;50.796;7.228;2023-04-12T05:34:34;9.10;99.90
6581;DHT22;3324;50.796;7.228;2023-04-12T05:37:02;9.10;99.90
6581;DHT22;3324;50.796;7.228;2023-04-12T05:39:28;9.10;99.90
6581;DHT22;3324;50.796;7.228;2023-04-12T05:41:53;9.10;99.90
6581;DHT22;3324;50.796;7.228;2023-04-12T05:44:19;9.10;99.90
6581;DHT22;3324;50.796;7.228;2023-04-12T05:46:45;9.00;99.90
6581;DHT22;3324;50.796;7.228;2023-04-12T05:49:10;9.00;99.90
6581;DHT22;3324;50.796;7.228;2023-04-12T05:51:36;9.00;99.90
6581;DHT22;3324;50.796;7.228;2023-04-12T05:54:02;9.00;99.90
6581;DHT22;3324;50.796;7.228;2023-04-12T05:56:30;9.00;99.90
6581;DHT22;3324;50.796;7.228;2023-04-12T05:58:56;9.00;99.90
6581;DHT22;3324;50.796;7.228;2023-04-12T06:01:22;9.00;99.90
6581;DHT22;3324;50.796;7.228;2023-04-12T06:03:49;9.00;99.90
6581;DHT22;3324;50.796;7.228;2023-04-12T06:06:15;9.00;99.90
6581;DHT22;3324;50.796;7.228;2023-04-12T06:08:41;9.00;99.90
6581;DHT22;3324;50.796;7.228;2023-04-12T06:11:07;9.10;99.90
6581;DHT22;3324;50.796;7.228;2023-04-12T06:13:33;9.10;99.90
6581;DHT22;3324;50.796;7.228;2023-04-12T06:15:59;9.10;99.90
6581;DHT22;3324;50.796;7.228;2023-04-12T06:18:25;9.00;99.90
6581;DHT22;3324;50.796;7.228;2023-04-12T06:20:50;9.00;99.90
6581;DHT22;3324;50.796;7.228;2023-04-12T06:23:16;9.10;99.90
6581;DHT22;3324;50.796;7.228;2023-04-12T06:25:43;9.00;99.90
6581;DHT22;3324;50.796;7.228;2023-04-12T06:28:09;9.00;99.90
6581;DHT22;3324;50.796;7.228;2023-04-12T06:30:34;9.10;99.90
6581;DHT22;3324;50.796;7.228;2023-04-12T06:33:00;9.10;99.90
6581;DHT22;3324;50.796;7.228;2023-04-12T06:35:26;9.10;99.90
6581;DHT22;3324;50.796;7.228;2023-04-12T06:37:51;9.10;99.90
6581;DHT22;3324;50.796;7.228;2023-04-12T06:40:17;9.10;99.90
6581;DHT22;3324;50.796;7.228;2023-04-12T06:42:42;9.10;99.90
6581;DHT22;3324;50.796;7.228;2023-04-12T06:45:08;9.10;99.90
6581;DHT22;3324;50.796;7.228;2023-04-12T06:47:34;9.20;99.90
6581;DHT22;3324;50.796;7.228;2023-04-12T06:49:59;9.20;99.90
6581;DHT22;3324;50.796;7.228;2023-04-12T06:52:25;9.30;99.90
6581;DHT22;3324;50.796;7.228;2023-04-12T06:54:51;9.20;99.90
6581;DHT22;3324;50.796;7.228;2023-04-12T06:57:17;9.20;99.90
6581;DHT22;3324;50.796;7.228;2023-04-12T06:59:43;9.20;99.90
6581;DHT22;3324;50.796;7.228;2023-04-12T07:02:08;9.30;99.90
6581;DHT22;3324;50.796;7.228;2023-04-12T07:04:34;9.30;99.90
6581;DHT22;3324;50.796;7.228;2023-04-12T07:07:00;9.30;99.90
6581;DHT22;3324;50.796;7.228;2023-04-12T07:09:26;9.30;99.90
6581;DHT22;3324;50.796;7.228;2023-04-12T07:11:51;9.40;99.90
6581;DHT22;3324;50.796;7.228;2023-04-12T07:14:17;9.40;99.90
6581;DHT22;3324;50.796;7.228;2023-04-12T07:16:43;9.40;99.90
6581;DHT22;3324;50.796;7.228;2023-04-12T07:19:09;9.40;99.90
6581;DHT22;3324;50.796;7.228;2023-04-12T07:21:34;9.40;99.90
6581;DHT22;3324;50.796;7.228;2023-04-12T07:24:00;9.40;99.90
6581;DHT22;3324;50.796;7.228;2023-04-12T07:26:26;9.40;99.90
6581;DHT22;3324;50.796;7.228;2023-04-12T07:28:51;9.50;99.90
6581;DHT22;3324;50.796;7.228;2023-04-12T07:31:17;9.50;99.90
6581;DHT22;3324;50.796;7.228;2023-04-12T07:33:43;9.50;99.90
6581;DHT22;3324;50.796;7.228;2023-04-12T07:36:09;9.50;99.90
6581;DHT22;3324;50.796;7.228;2023-04-12T07:38:35;9.50;99.90
6581;DHT22;3324;50.796;7.228;2023-04-12T07:41:00;9.50;99.90
6581;DHT22;3324;50.796;7.228;2023-04-12T07:43:26;9.60;99.90
6581;DHT22;3324;50.796;7.228;2023-04-12T07:45:53;9.70;99.90
6581;DHT22;3324;50.796;7.228;2023-04-12T07:48:20;9.70;99.90
6581;DHT22;3324;50.796;7.228;2023-04-12T07:50:46;9.60;99.90
6581;DHT22;3324;50.796;7.228;2023-04-12T07:53:22;9.70;99.90
6581;DHT22;3324;50.796;7.228;2023-04-12T07:55:48;9.70;99.90
6581;DHT22;3324;50.796;7.228;2023-04-12T07:58:15;9.70;99.90
6581;DHT22;3324;50.796;7.228;2023-04-12T08:00:41;9.80;99.90
6581;DHT22;3324;50.796;7.228;2023-04-12T08:03:07;9.80;99.90
6581;DHT22;3324;50.796;7.228;2023-04-12T08:05:33;9.90;99.90
6581;DHT22;3324;50.796;7.228;2023-04-12T08:07:59;9.90;99.90
6581;DHT22;3324;50.796;7.228;2023-04-12T08:10:24;9.80;99.90
6581;DHT22;3324;50.796;7.228;2023-04-12T08:12:50;9.90;99.90
6581;DHT22;3324;50.796;7.228;2023-04-12T08:15:16;9.90;99.90
6581;DHT22;3324;50.796;7.228;2023-04-12T08:17:42;9.90;99.90
6581;DHT22;3324;50.796;7.228;2023-04-12T08:20:08;9.90;99.90
6581;DHT22;3324;50.796;7.228;2023-04-12T08:22:34;9.90;99.90
6581;DHT22;3324;50.796;7.228;2023-04-12T08:25:00;9.90;99.90
6581;DHT22;3324;50.796;7.228;2023-04-12T08:27:28;9.90;99.90
6581;DHT22;3324;50.796;7.228;2023-04-12T08:29:53;9.90;99.90
6581;DHT22;3324;50.796;7.228;2023-04-12T08:32:19;10.00;99.90
6581;DHT22;3324;50.796;7.228;2023-04-12T08:34:45;10.00;99.90
6581;DHT22;3324;50.796;7.228;2023-04-12T08:37:11;10.00;99.90
6581;DHT22;3324;50.796;7.228;2023-04-12T08:39:37;10.00;99.90
6581;DHT22;3324;50.796;7.228;2023-04-12T08:42:03;10.10;99.90
6581;DHT22;3324;50.796;7.228;2023-04-12T08:44:37;10.10;99.90
6581;DHT22;3324;50.796;7.228;2023-04-12T08:47:04;10.10;99.90
6581;DHT22;3324;50.796;7.228;2023-04-12T08:49:32;10.20;99.90
6581;DHT22;3324;50.796;7.228;2023-04-12T08:52:04;10.20;99.90
6581;DHT22;3324;50.796;7.228;2023-04-12T08:54:36;10.30;99.90
6581;DHT22;3324;50.796;7.228;2023-04-12T08:57:06;10.40;99.90
6581;DHT22;3324;50.796;7.228;2023-04-12T08:59:36;10.40;99.90
6581;DHT22;3324;50.796;7.228;2023-04-12T09:02:02;10.40;99.90
6581;DHT22;3324;50.796;7.228;2023-04-12T09:04:27;10.40;99.90
6581;DHT22;3324;50.796;7.228;2023-04-12T09:06:54;10.40;99.90
6581;DHT22;3324;50.796;7.228;2023-04-12T09:09:40;10.40;99.90
6581;DHT22;3324;50.796;7.228;2023-04-12T09:12:06;10.50;99.90
6581;DHT22;3324;50.796;7.228;2023-04-12T09:14:32;10.50;99.90
6581;DHT22;3324;50.796;7.228;2023-04-12T09:16:58;10.60;99.90
6581;DHT22;3324;50.796;7.228;2023-04-12T09:19:31;10.60;99.90
6581;DHT22;3324;50.796;7.228;2023-04-12T09:21:57;10.70;99.90
6581;DHT22;3324;50.796;7.228;2023-04-12T09:24:23;10.80;99.90
6581;DHT22;3324;50.796;7.228;2023-04-12T09:27:22;10.90;99.90
6581;DHT22;3324;50.796;7.228;2023-04-12T09:29:41;10.90;99.90
6581;DHT22;3324;50.796;7.228;2023-04-12T09:32:08;10.90;99.90
6581;DHT22;3324;50.796;7.228;2023-04-12T09:34:34;11.00;99.90
6581;DHT22;3324;50.796;7.228;2023-04-12T09:37:13;11.00;99.90
6581;DHT22;3324;50.796;7.228;2023-04-12T09:39:40;11.00;99.90
6581;DHT22;3324;50.796;7.228;2023-04-12T09:42:08;11.20;99.90
6581;DHT22;3324;50.796;7.228;2023-04-12T09:44:34;11.20;99.90
6581;DHT22;3324;50.796;7.228;2023-04-12T09:47:00;11.10;99.90
6581;DHT22;3324;50.796;7.228;2023-04-12T09:49:40;11.10;99.90
6581;DHT22;3324;50.796;7.228;2023-04-12T09:52:07;11.10;99.90
6581;DHT22;3324;50.796;7.228;2023-04-12T09:54:38;11.10;99.90
6581;DHT22;3324;50.796;7.228;2023-04-12T09:57:07;11.20;99.90
6581;DHT22;3324;50.796;7.228;2023-04-12T09:59:38;11.30;99.90
6581;DHT22;3324;50.796;7.228;2023-04-12T10:02:12;11.30;99.90
6581;DHT22;3324;50.796;7.228;2023-04-12T10:04:39;11.30;99.90
6581;DHT22;3324;50.796;7.228;2023-04-12T10:07:05;11.40;99.90
6581;DHT22;3324;50.796;7.228;2023-04-12T10:09:32;11.40;99.90
6581;DHT22;3324;50.796;7.228;2023-04-12T10:11:59;11.40;99.90
6581;DHT22;3324;50.796;7.228;2023-04-12T10:14:27;11.40;99.90
6581;DHT22;3324;50.796;7.228;2023-04-12T10:16:55;11.50;99.90
6581;DHT22;3324;50.796;7.228;2023-04-12T10:19:23;11.70;99.90
6581;DHT22;3324;50.796;7.228;2023-04-12T10:21:49;11.60;99.90
6581;DHT22;3324;50.796;7.228;2023-04-12T10:24:15;11.70;99.90
6581;DHT22;3324;50.796;7.228;2023-04-12T10:26:42;11.70;99.90
6581;DHT22;3324;50.796;7.228;2023-04-12T10:29:30;11.80;99.90
6581;DHT22;3324;50.796;7.228;2023-04-12T10:32:16;11.90;99.90
6581;DHT22;3324;50.796;7.228;2023-04-12T10:34:43;11.90;99.90
6581;DHT22;3324;50.796;7.228;2023-04-12T10:37:09;12.00;99.90
6581;DHT22;3324;50.796;7.228;2023-04-12T10:39:42;12.10;99.90
6581;DHT22;3324;50.796;7.228;2023-04-12T10:44:40;12.20;99.90
6581;DHT22;3324;50.796;7.228;2023-04-12T10:47:06;12.20;99.90
6581;DHT22;3324;50.796;7.228;2023-04-12T10:49:32;12.30;99.90
6581;DHT22;3324;50.796;7.228;2023-04-12T10:54:34;12.60;99.90
6581;DHT22;3324;50.796;7.228;2023-04-12T10:57:01;12.90;99.90
6581;DHT22;3324;50.796;7.228;2023-04-12T10:59:50;13.10;99.90
6581;DHT22;3324;50.796;7.228;2023-04-12T11:02:16;13.40;99.90
6581;DHT22;3324;50.796;7.228;2023-04-12T11:05:05;13.60;99.90
6581;DHT22;3324;50.796;7.228;2023-04-12T11:07:40;13.80;99.90
6581;DHT22;3324;50.796;7.228;2023-04-12T11:10:16;13.90;99.90
6581;DHT22;3324;50.796;7.228;2023-04-12T11:12:53;13.90;99.90
6581;DHT22;3324;50.796;7.228;2023-04-12T11:15:25;13.80;99.90
6581;DHT22;3324;50.796;7.228;2023-04-12T11:17:55;13.60;99.90
6581;DHT22;3324;50.796;7.228;2023-04-12T11:20:20;13.40;99.90
6581;DHT22;3324;50.796;7.228;2023-04-12T11:22:48;13.30;99.90
6581;DHT22;3324;50.796;7.228;2023-04-12T11:25:16;13.20;99.90
6581;DHT22;3324;50.796;7.228;2023-04-12T11:27:48;13.00;99.90
6581;DHT22;3324;50.796;7.228;2023-04-12T11:30:15;12.80;99.90
6581;DHT22;3324;50.796;7.228;2023-04-12T11:32:43;12.60;99.90
6581;DHT22;3324;50.796;7.228;2023-04-12T11:35:09;12.50;99.90
6581;DHT22;3324;50.796;7.228;2023-04-12T11:37:35;12.40;99.90
6581;DHT22;3324;50.796;7.228;2023-04-12T11:40:02;12.40;99.90
6581;DHT22;3324;50.796;7.228;2023-04-12T11:42:31;12.40;99.90
6581;DHT22;3324;50.796;7.228;2023-04-12T11:44:57;12.50;99.90
6581;DHT22;3324;50.796;7.228;2023-04-12T11:47:23;12.50;99.90
6581;DHT22;3324;50.796;7.228;2023-04-12T11:49:51;12.60;99.90
6581;DHT22;3324;50.796;7.228;2023-04-12T11:52:18;12.50;99.90
6581;DHT22;3324;50.796;7.228;2023-04-12T11:54:50;12.50;99.90
6581;DHT22;3324;50.796;7.228;2023-04-12T11:57:20;12.60;99.90
6581;DHT22;3324;50.796;7.228;2023-04-12T11:59:47;12.70;99.90
6581;DHT22;3324;50.796;7.228;2023-04-12T12:02:14;12.70;99.90
6581;DHT22;3324;50.796;7.228;2023-04-12T12:04:44;12.70;99.90
6581;DHT22;3324;50.796;7.228;2023-04-12T12:07:11;12.80;99.90
6581;DHT22;3324;50.796;7.228;2023-04-12T12:09:38;13.00;99.90
6581;DHT22;3324;50.796;7.228;2023-04-12T12:12:05;13.00;99.90
6581;DHT22;3324;50.796;7.228;2023-04-12T12:14:33;12.90;99.90
6581;DHT22;3324;50.796;7.228;2023-04-12T12:17:08;12.70;99.90
6581;DHT22;3324;50.796;7.228;2023-04-12T12:19:39;12.70;99.90
6581;DHT22;3324;50.796;7.228;2023-04-12T12:22:19;12.70;99.90
6581;DHT22;3324;50.796;7.228;2023-04-12T12:24:56;12.70;99.90
6581;DHT22;3324;50.796;7.228;2023-04-12T12:27:37;12.70;99.90
6581;DHT22;3324;50.796;7.228;2023-04-12T12:30:05;12.80;99.90
6581;DHT22;3324;50.796;7.228;2023-04-12T12:32:35;12.80;99.90
6581;DHT22;3324;50.796;7.228;2023-04-12T12:35:02;12.90;99.90
6581;DHT22;3324;50.796;7.228;2023-04-12T12:37:29;13.00;99.90
6581;DHT22;3324;50.796;7.228;2023-04-12T12:40:10;13.00;99.90
6581;DHT22;3324;50.796;7.228;2023-04-12T12:42:50;13.10;99.90
6581;DHT22;3324;50.796;7.228;2023-04-12T12:45:18;13.30;99.90
6581;DHT22;3324;50.796;7.228;2023-04-12T12:50:28;13.60;99.90
6581;DHT22;3324;50.796;7.228;2023-04-12T12:52:55;13.90;99.90
6581;DHT22;3324;50.796;7.228;2023-04-12T12:55:22;14.20;99.90
6581;DHT22;3324;50.796;7.228;2023-04-12T12:57:50;14.50;99.90
6581;DHT22;3324;50.796;7.228;2023-04-12T13:00:18;14.60;99.90
6581;DHT22;3324;50.796;7.228;2023-04-12T13:02:44;14.60;99.90
6581;DHT22;3324;50.796;7.228;2023-04-12T13:05:11;14.60;99.90
6581;DHT22;3324;50.796;7.228;2023-04-12T13:07:37;14.70;99.90
6581;DHT22;3324;50.796;7.228;2023-04-12T13:10:03;14.60;99.90
6581;DHT22;3324;50.796;7.228;2023-04-12T13:12:29;14.50;99.90
6581;DHT22;3324;50.796;7.228;2023-04-12T13:14:56;14.40;99.90
6581;DHT22;3324;50.796;7.228;2023-04-12T13:17:21;14.20;99.90
6581;DHT22;3324;50.796;7.228;2023-04-12T13:19:47;14.10;99.90
6581;DHT22;3324;50.796;7.228;2023-04-12T13:22:14;14.10;99.90
6581;DHT22;3324;50.796;7.228;2023-04-12T13:24:41;14.10;99.90
6581;DHT22;3324;50.796;7.228;2023-04-12T13:27:07;14.10;99.90
6581;DHT22;3324;50.796;7.228;2023-04-12T13:29:33;14.00;99.90
6581;DHT22;3324;50.796;7.228;2023-04-12T13:31:59;14.00;99.90
6581;DHT22;3324;50.796;7.228;2023-04-12T13:34:24;14.00;99.90
6581;DHT22;3324;50.796;7.228;2023-04-12T13:36:50;14.00;99.90
6581;DHT22;3324;50.796;7.228;2023-04-12T13:39:16;14.20;99.90
6581;DHT22;3324;50.796;7.228;2023-04-12T13:41:42;14.40;99.90
6581;DHT22;3324;50.796;7.228;2023-04-12T13:44:08;14.70;99.90
6581;DHT22;3324;50.796;7.228;2023-04-12T13:46:33;14.90;99.90
6581;DHT22;3324;50.796;7.228;2023-04-12T13:48:59;15.00;99.90
6581;DHT22;3324;50.796;7.228;2023-04-12T13:51:25;15.00;99.90
6581;DHT22;3324;50.796;7.228;2023-04-12T13:53:53;14.90;99.90
6581;DHT22;3324;50.796;7.228;2023-04-12T13:56:18;15.10;99.90
6581;DHT22;3324;50.796;7.228;2023-04-12T13:58:45;15.30;99.90
6581;DHT22;3324;50.796;7.228;2023-04-12T14:01:10;15.40;99.90
6581;DHT22;3324;50.796;7.228;2023-04-12T14:03:38;15.70;99.90
6581;DHT22;3324;50.796;7.228;2023-04-12T14:06:05;15.90;99.90
6581;DHT22;3324;50.796;7.228;2023-04-12T14:08:31;15.80;99.90
6581;DHT22;3324;50.796;7.228;2023-04-12T14:10:57;15.80;99.90
6581;DHT22;3324;50.796;7.228;2023-04-12T14:13:25;15.70;99.90
6581;DHT22;3324;50.796;7.228;2023-04-12T14:15:51;15.60;99.90
6581;DHT22;3324;50.796;7.228;2023-04-12T14:18:17;15.30;99.90
6581;DHT22;3324;50.796;7.228;2023-04-12T14:20:43;15.20;99.90
6581;DHT22;3324;50.796;7.228;2023-04-12T14:23:11;15.10;99.90
6581;DHT22;3324;50.796;7.228;2023-04-12T14:25:38;15.10;99.90
6581;DHT22;3324;50.796;7.228;2023-04-12T14:28:04;15.30;99.90
6581;DHT22;3324;50.796;7.228;2023-04-12T14:30:30;15.40;99.90
6581;DHT22;3324;50.796;7.228;2023-04-12T14:32:55;15.50;99.90
6581;DHT22;3324;50.796;7.228;2023-04-12T14:35:21;15.40;99.90
6581;DHT22;3324;50.796;7.228;2023-04-12T14:37:47;15.30;99.90
6581;DHT22;3324;50.796;7.228;2023-04-12T14:40:12;15.20;99.90
6581;DHT22;3324;50.796;7.228;2023-04-12T14:42:39;15.20;99.90
6581;DHT22;3324;50.796;7.228;2023-04-12T14:45:05;15.20;99.90
6581;DHT22;3324;50.796;7.228;2023-04-12T14:47:33;15.30;99.90
6581;DHT22;3324;50.796;7.228;2023-04-12T14:50:00;15.40;99.90
6581;DHT22;3324;50.796;7.228;2023-04-12T14:52:25;15.40;99.90
6581;DHT22;3324;50.796;7.228;2023-04-12T14:54:52;15.40;99.90
6581;DHT22;3324;50.796;7.228;2023-04-12T14:57:17;15.30;99.90
6581;DHT22;3324;50.796;7.228;2023-04-12T14:59:43;15.20;99.90
6581;DHT22;3324;50.796;7.228;2023-04-12T15:02:08;15.10;99.90
6581;DHT22;3324;50.796;7.228;2023-04-12T15:04:34;15.00;99.90
6581;DHT22;3324;50.796;7.228;2023-04-12T15:07:00;15.00;99.90
6581;DHT22;3324;50.796;7.228;2023-04-12T15:09:25;15.00;99.90
6581;DHT22;3324;50.796;7.228;2023-04-12T15:11:51;14.90;99.90
6581;DHT22;3324;50.796;7.228;2023-04-12T15:14:27;14.80;99.90
6581;DHT22;3324;50.796;7.228;2023-04-12T15:16:54;14.70;99.90
6581;DHT22;3324;50.796;7.228;2023-04-12T15:19:20;14.60;99.90
6581;DHT22;3324;50.796;7.228;2023-04-12T15:21:48;14.50;99.90
6581;DHT22;3324;50.796;7.228;2023-04-12T15:24:25;14.50;99.90
6581;DHT22;3324;50.796;7.228;2023-04-12T15:26:51;14.40;99.90
6581;DHT22;3324;50.796;7.228;2023-04-12T15:29:18;14.20;99.90
6581;DHT22;3324;50.796;7.228;2023-04-12T15:31:45;14.10;99.90
6581;DHT22;3324;50.796;7.228;2023-04-12T15:34:11;14.10;99.90
6581;DHT22;3324;50.796;7.228;2023-04-12T15:36:40;14.00;99.90
6581;DHT22;3324;50.796;7.228;2023-04-12T15:39:07;13.80;99.90
6581;DHT22;3324;50.796;7.228;2023-04-12T15:41:34;13.70;99.90
6581;DHT22;3324;50.796;7.228;2023-04-12T15:44:03;13.50;99.90
6581;DHT22;3324;50.796;7.228;2023-04-12T15:46:29;13.40;99.90
6581;DHT22;3324;50.796;7.228;2023-04-12T15:48:55;13.20;99.90
6581;DHT22;3324;50.796;7.228;2023-04-12T15:51:22;13.00;99.90
6581;DHT22;3324;50.796;7.228;2023-04-12T15:53:48;12.70;99.90
6581;DHT22;3324;50.796;7.228;2023-04-12T15:56:14;12.50;99.90
6581;DHT22;3324;50.796;7.228;2023-04-12T15:58:46;12.30;99.90
6581;DHT22;3324;50.796;7.228;2023-04-12T16:01:12;12.20;99.90
6581;DHT22;3324;50.796;7.228;2023-04-12T16:03:37;12.10;99.90
6581;DHT22;3324;50.796;7.228;2023-04-12T16:06:04;12.00;99.90
6581;DHT22;3324;50.796;7.228;2023-04-12T16:08:30;12.00;99.90
6581;DHT22;3324;50.796;7.228;2023-04-12T16:10:55;11.90;99.90
6581;DHT22;3324;50.796;7.228;2023-04-12T16:13:23;11.90;99.90
6581;DHT22;3324;50.796;7.228;2023-04-12T16:15:48;11.90;99.90
6581;DHT22;3324;50.796;7.228;2023-04-12T16:18:15;11.90;99.90
6581;DHT22;3324;50.796;7.228;2023-04-12T16:20:41;11.90;99.90
6581;DHT22;3324;50.796;7.228;2023-04-12T16:23:07;11.80;99.90